Spankerton, Vermont
Current Conditions -  °F | °C
As of 7:15 PM on Saturday 22 Nov 2014 (Local Time) from KRUT Reporting Station
Overcast Overcast  
Wind Chill: 36°   Ceiling: 3300
Heat Index: 39°   Visibility: 10mi
Dew Point: 19°   Wind: 5mph
Humidity: 45%   Direction: 300°WNW
Pressure: 30.03"   Gusts: NA
Location:  43.358°N, 73.1349°W
Report Text: KRUT 230015Z 30004KT 10SM OVC033 04/M07 A3003 RMK AO1
Loading
Personal Weather Stations






























Interactive Weather Map New forecast layout! Learn more

10-Day Weather Forecast

Advertisements
Track Severe Weather on mobile